Terminal Aerodrome Forecast
Issued by NWS

Home | Current Version | Previous Version | Text Only | Print | Product List | Glossary On
Versions: 1 2 3 4 5 6 7 8 9 10 11 12 13 14 15
000
FTUS46 KEKA 301741
TAFUKI
TAF
KUKI 301741Z 3018/3118 34004KT P6SM FEW250
     FM302100 32008G14KT P6SM SKC
     FM310400 36003KT P6SM SKC
     FM310600 00000KT P6SM SCT010
     FM311600 09003KT P6SM FEW010=

USA.gov is the U.S. government's official web portal to all federal, state and local government web resources and services.